Latest Coastal Weather Observations for Cape Bruny AWS

IDT60701

Issued at 12:22 pm EST Tuesday 22 May 2018 (issued every 10 minutes, with the page automatically refreshed every 10 minutes)

About coastal observations | Map of coastal stations | Coastal observations for TAS | Marine services | Other Formats
Station Details ID: 094198 Name: CAPE BRUNY (CAPE BRUNY) Lat: -43.49 Lon: 147.14 Height: 59.7 m
Data from the previous 72 hours. | See also: Recent months at Cape Bruny AWS
Date/Time
EST
Temp
°C
Wind Pressure Rain since
9am
mm
Weather Cloud Vis
km
Sea
Height
m
Swell
Dir  Spd
kts
Gust
kts
hPa Trend Height
m
Period
s
Dir
22/12:14pm 11.5 WSW 41 52 1012.9 - 0.0 - - - - - - -
22/12:09pm 11.6 WSW 39 52 1012.8 - 0.0 - - - - - - -
22/12:00pm 11.9 WSW 34 44 1012.8 - 0.0 - - - - - - -
22/11:30am 11.5 WSW 36 47 1013.0 - 0.0 - - - - - - -
22/11:04am 10.9 WSW 39 49 1012.6 - 0.0 - - - - - - -
22/11:00am 11.0 WSW 40 49 1012.7 - 0.0 - - - - - - -
22/10:30am 10.9 WSW 40 52 1012.1 - 0.0 - - - - - - -
22/10:01am 11.0 WSW 39 49 1011.9 - 0.0 - - - - - - -
22/10:00am 11.1 WSW 40 49 1012.0 - 0.0 - - - - - - -
22/09:30am 10.6 WSW 38 50 1011.5 - 0.0 - - - - - - -
22/09:00am 10.2 WSW 34 47 1011.2 - 0.8 - - - - - - -
22/08:30am 10.7 W 39 52 1010.8 - 0.8 - - - - - - -
22/08:00am 10.0 W 33 44 1010.3 - 0.8 - - - - - - -
22/07:30am 9.4 W 30 45 1010.0 - 0.8 - - - - - - -
22/07:00am 10.4 W 30 43 1009.2 - 0.8 - - - - - - -
22/06:30am 9.9 W 31 43 1008.7 - 0.8 - - - - - - -
22/06:00am 10.2 W 30 41 1008.4 - 0.8 Recent precip. - - - - - -
22/05:30am 10.0 W 31 45 1008.2 - 0.6 - - - - - - -
22/05:00am 9.2 W 29 45 1008.0 - 0.6 - - - - - - -
22/04:30am 10.4 W 28 38 1007.5 - 0.4 - - - - - - -
22/04:03am 9.9 W 29 41 1007.7 - 0.4 - - - - - - -
22/04:00am 10.0 W 29 37 1007.7 - 0.4 - - - - - - -
22/03:30am 9.7 WSW 31 44 1007.6 - 0.4 - - - - - - -
22/03:01am 10.5 WSW 33 45 1007.1 - 0.0 - - - - - - -
22/03:00am 10.7 WSW 32 40 1007.2 - 0.0 - - - - - - -
22/02:30am 11.3 W 31 42 1006.8 - 0.0 - - - - - - -
22/02:00am 11.4 W 35 45 1006.0 - 0.0 - - - - - - -
22/01:30am 11.2 W 34 53 1005.8 - 0.0 - - - - - - -
22/01:00am 10.9 WSW 39 49 1005.5 - 0.0 - - - - - - -
22/12:59am 11.2 WSW 39 49 1005.5 - 0.0 - - - - - - -
22/12:49am 10.7 WSW 38 49 1005.3 - 0.0 - - - - - - -
22/12:30am 11.4 W 31 42 1005.6 - 0.0 - - - - - - -
22/12:00am 11.3 WSW 33 45 1004.8 - 0.0 - - - - - - -
 
Date/Time
EST
Temp
°C
Wind Pressure Rain since
9am
mm
Weather Cloud Vis
km
Sea
Height
m
Swell
Dir  Spd
kts
Gust
kts
hPa Trend Height
m
Period
s
Dir
21/11:30pm 12.2 W 31 41 1004.4 - 0.0 - - - - - - -
21/11:00pm 11.5 W 36 49 1004.0 - 0.0 - - - - - - -
21/10:30pm 12.0 W 31 42 1004.6 - 0.0 - - - - - - -
21/10:00pm 12.1 W 29 40 1004.5 - 0.0 - - - - - - -
21/09:30pm 12.0 W 30 40 1004.6 - 0.0 - - - - - - -
21/09:00pm 12.2 W 26 38 1004.5 - 0.0 - - - - - - -
21/08:30pm 12.0 W 21 29 1004.6 - 0.0 - - - - - - -
21/08:03pm 12.9 W 17 28 1003.9 - 0.0 - - - - - - -
21/08:00pm 12.9 W 15 20 1004.0 - 0.0 - - - - - - -
21/07:30pm 12.4 W 19 26 1004.0 - 0.0 - - - - - - -
21/07:00pm 13.3 W 23 35 1003.6 - 0.0 - - - - - - -
21/06:30pm 13.5 W 23 32 1003.8 - 0.0 - - - - - - -
21/06:00pm 13.4 W 21 31 1003.8 - 0.0 - - - - - - -
21/05:56pm 13.6 W 19 31 1003.8 - 0.0 - - - - - - -
21/05:30pm 13.3 W 20 28 1003.5 - 0.0 - - - - - - -
21/05:00pm 13.3 W 22 31 1003.8 - 0.0 - - - - - - -
21/04:30pm 12.9 W 20 26 1003.9 - 0.0 - - - - - - -
21/04:07pm 13.2 W 23 33 1003.9 - 0.0 - - - - - - -
21/04:00pm 13.1 W 24 31 1003.8 - 0.0 - - - - - - -
21/03:31pm 13.1 W 28 39 1003.8 - 0.0 - - - - - - -
21/03:30pm 13.0 W 27 35 1003.8 - 0.0 - - - - - - -
21/03:00pm 12.9 WNW 24 33 1004.5 - 0.0 - - - - - - -
21/02:30pm 12.9 WNW 25 39 1004.4 - 0.0 - - - - - - -
21/02:26pm 13.0 WNW 22 32 1004.5 - 0.0 - - - - - - -
21/02:00pm 13.2 WNW 24 33 1005.0 - 0.0 - - - - - - -
21/01:30pm 13.1 WNW 21 28 1005.1 - 0.0 - - - - - - -
21/01:00pm 13.4 WNW 23 30 1005.4 - 0.0 - - - - - - -
21/12:30pm 13.8 WNW 22 30 1005.6 - 0.0 - - - - - - -
21/12:05pm 13.4 WNW 21 31 1005.8 - 0.0 - - - - - - -
21/12:00pm 13.4 WNW 20 27 1006.0 - 0.0 - - - - - - -
21/11:30am 13.4 WNW 20 28 1006.9 - 0.0 - - - - - - -
21/11:00am 13.0 WNW 21 29 1007.4 - 0.0 - - - - - - -
21/10:46am 12.7 WNW 19 29 1007.5 - 0.0 - - - - - - -
21/10:30am 12.0 WNW 22 30 1007.6 - 0.0 - - - - - - -
21/10:00am 11.9 WNW 24 37 1007.7 - 0.0 - - - - - - -
21/09:51am 12.0 WNW 21 31 1007.8 - 0.0 - - - - - - -
21/09:30am 11.9 WNW 20 26 1008.0 - 0.0 - - - - - - -
21/09:00am 11.4 WNW 23 29 1008.3 - 8.2 - - - - - - -
21/08:39am 11.3 WNW 21 31 1008.2 - 8.2 - - - - - - -
21/08:30am 11.4 WNW 22 30 1008.5 - 8.2 - - - - - - -
21/08:00am 11.0 WNW 20 30 1008.0 - 8.2 - - - - - - -
21/07:51am 10.9 WNW 20 30 1007.8 - 8.2 - - - - - - -
21/07:30am 10.8 WNW 20 27 1007.9 - 8.2 - - - - - - -
21/07:00am 10.5 NW 17 22 1008.3 - 8.2 - - - - - - -
21/06:30am 10.6 W 11 14 1008.5 - 8.2 - - - - - - -
21/06:00am 10.3 W 15 19 1008.5 - 8.2 - - - - - - -
21/05:30am 10.7 W 17 21 1008.3 - 8.2 - - - - - - -
21/05:00am 10.7 W 17 25 1008.4 - 8.2 - - - - - - -
21/04:30am 10.7 W 15 21 1008.2 - 8.2 - - - - - - -
21/04:00am 10.3 W 19 25 1008.2 - 8.2 - - - - - - -
21/03:51am 10.2 W 20 30 1008.3 - 8.2 - - - - - - -
21/03:30am 10.5 W 23 30 1008.1 - 8.2 - - - - - - -
21/03:20am 10.0 W 22 32 1008.1 - 8.2 - - - - - - -
21/03:00am 10.0 W 22 30 1008.3 - 8.2 Recent precip. - - - - - -
21/02:35am 10.0 W 21 31 1008.4 - 8.0 - - - - - - -
21/02:30am 10.0 W 24 31 1008.4 - 8.0 - - - - - - -
21/02:00am 9.9 W 21 29 1008.4 - 8.0 - - - - - - -
21/01:30am 10.1 W 22 31 1008.4 - 7.8 - - - - - - -
21/01:00am 9.9 W 23 29 1008.3 - 7.8 - - - - - - -
21/12:30am 10.4 W 22 27 1008.5 - 7.8 - - - - - - -
21/12:00am 10.6 W 21 29 1008.1 - 7.8 - - - - - - -
 
Date/Time
EST
Temp
°C
Wind Pressure Rain since
9am
mm
Weather Cloud Vis
km
Sea
Height
m
Swell
Dir  Spd
kts
Gust
kts
hPa Trend Height
m
Period
s
Dir
20/11:30pm 10.5 W 22 30 1008.1 - 7.8 - - - - - - -
20/11:12pm 10.5 W 23 33 1008.1 - 7.8 - - - - - - -
20/11:00pm 10.8 W 26 32 1008.2 - 7.8 - - - - - - -
20/10:30pm 10.8 W 24 30 1007.8 - 7.8 - - - - - - -
20/10:04pm 10.3 W 19 29 1007.8 - 7.6 - - - - - - -
20/10:00pm 10.4 WNW 17 23 1007.9 - 7.6 - - - - - - -
20/09:30pm 10.7 W 20 25 1007.6 - 7.6 - - - - - - -
20/09:00pm 10.7 W 21 25 1007.6 - 7.4 Recent precip. - - - - - -
20/08:39pm 11.2 W 16 29 1007.6 - 7.2 - - - - - - -
20/08:30pm 10.9 W 18 22 1007.4 - 7.0 - - - - - - -
20/08:00pm 10.7 WNW 18 27 1007.7 - 5.6 - - - - - - -
20/07:56pm 10.7 WNW 17 27 1007.5 - 5.6 - - - - - - -
20/07:41pm 10.9 W 15 23 1007.2 - 4.8 - - - - - - -
20/07:30pm 11.3 W 8 13 1007.6 - 2.6 - - - - - - -
20/07:00pm 11.4 W 7 11 1007.3 - 1.0 - - - - - - -
20/06:30pm 11.2 NW 7 11 1006.9 - 0.4 - - - - - - -
20/06:00pm 10.5 NNW 8 10 1006.9 - 0.4 - - - - - - -
20/05:30pm 10.6 NNW 10 12 1007.1 - 0.4 - - - - - - -
20/05:00pm 10.3 NNW 10 13 1006.9 - 0.4 - - - - - - -
20/04:30pm 10.6 NNW 10 14 1007.1 - 0.4 - - - - - - -
20/04:00pm 11.4 NW 8 13 1007.5 - 0.0 - - - - - - -
20/03:30pm 11.1 W 8 11 1007.9 - 0.0 - - - - - - -
20/03:00pm 11.3 WSW 16 19 1008.1 - 0.0 - - - - - - -
20/02:30pm 11.7 W 17 24 1008.0 - 0.0 - - - - - - -
20/02:00pm 11.5 W 23 29 1008.0 - 0.0 - - - - - - -
20/01:30pm 11.6 W 17 24 1008.2 - 0.0 - - - - - - -
20/01:00pm 11.7 W 22 29 1008.2 - 0.0 - - - - - - -
20/12:42pm 11.7 W 22 32 1008.3 - 0.0 - - - - - - -
20/12:30pm 11.6 W 24 31 1008.4 - 0.0 - - - - - - -
20/12:00pm 11.6 W 21 30 1008.6 - 0.0 - - - - - - -
20/11:47am 12.2 W 24 34 1008.7 - 0.0 - - - - - - -
20/11:30am 11.6 W 21 27 1008.7 - 0.0 - - - - - - -
20/11:00am 11.2 W 22 31 1009.0 - 0.0 - - - - - - -
20/10:30am 10.9 W 21 29 1009.0 - 0.0 - - - - - - -
20/10:00am 11.3 W 24 34 1008.3 - 0.0 - - - - - - -
20/09:30am 11.2 W 25 36 1008.2 - 0.0 - - - - - - -
20/09:15am 11.1 WSW 31 41 1008.1 - 0.0 - - - - - - -
20/09:05am 10.8 W 28 41 1007.8 - 0.0 - - - - - - -
20/09:00am 11.3 W 25 37 1008.1 - 0.0 - - - - - - -
20/08:31am 11.2 W 28 38 1007.7 - 0.0 - - - - - - -
20/08:30am 11.2 W 29 38 1007.7 - 0.0 - - - - - - -
20/08:00am 11.0 W 28 38 1007.5 - 0.0 - - - - - - -
20/07:33am 10.7 W 27 36 1007.0 - 0.0 - - - - - - -
20/07:30am 10.8 W 27 38 1006.9 - 0.0 - - - - - - -
20/07:29am 10.6 W 28 42 1006.9 - 0.0 - - - - - - -
20/07:00am 10.6 WSW 35 46 1006.2 - 0.0 - - - - - - -
20/06:32am 10.6 WSW 30 40 1006.2 - 0.0 - - - - - - -
20/06:30am 10.5 WSW 31 40 1006.2 - 0.0 - - - - - - -
20/06:00am 10.4 W 32 45 1005.9 - 0.0 - - - - - - -
20/05:30am 10.1 WSW 35 49 1005.5 - 0.0 - - - - - - -
20/05:00am 10.3 W 31 42 1005.7 - 0.0 - - - - - - -
20/04:45am 10.4 WSW 36 48 1005.5 - 0.0 - - - - - - -
20/04:41am 10.4 WSW 33 44 1005.4 - 0.0 - - - - - - -
20/04:31am 10.7 W 26 36 1005.7 - 0.0 - - - - - - -
20/04:30am 10.6 W 27 36 1005.7 - 0.0 - - - - - - -
20/04:00am 10.5 WSW 27 39 1005.9 - 0.0 - - - - - - -
20/03:31am 11.0 W 22 32 1005.8 - 0.0 - - - - - - -
20/03:30am 11.0 W 23 32 1005.8 - 0.0 - - - - - - -
20/03:05am 11.4 W 27 37 1005.7 - 0.0 - - - - - - -
20/03:00am 11.1 W 28 33 1005.7 - 0.0 - - - - - - -
20/02:37am 11.3 W 29 39 1005.5 - 0.0 - - - - - - -
20/02:30am 11.4 W 32 39 1005.5 - 0.0 - - - - - - -
20/02:00am 11.3 W 28 39 1005.1 - 0.0 - - - - - - -
20/01:35am 11.0 W 27 37 1005.4 - 0.0 - - - - - - -
20/01:30am 11.3 W 27 36 1005.3 - 0.0 - - - - - - -
20/01:16am 10.7 W 27 40 1004.9 - 0.0 - - - - - - -
20/01:14am 10.7 W 28 40 1004.9 - 0.0 - - - - - - -
20/01:00am 10.5 WSW 36 49 1004.8 - 0.0 - - - - - - -
20/12:40am 11.2 WSW 31 42 1004.9 - 0.0 - - - - - - -
20/12:30am 11.2 WSW 31 40 1004.7 - 0.0 - - - - - - -
20/12:00am 11.9 WSW 27 42 1004.6 - 0.0 - - - - - - -
 
Date/Time
EST
Temp
°C
Wind Pressure Rain since
9am
mm
Weather Cloud Vis
km
Sea
Height
m
Swell
Dir  Spd
kts
Gust
kts
hPa Trend Height
m
Period
s
Dir
19/11:31pm 11.8 W 22 32 1004.2 - 0.0 - - - - - - -
19/11:30pm 11.8 W 23 32 1004.1 - 0.0 - - - - - - -
19/11:02pm 12.6 W 21 34 1004.3 - 0.0 - - - - - - -
19/11:00pm 12.4 W 20 26 1004.4 - 0.0 - - - - - - -
19/10:30pm 12.8 W 21 28 1004.5 - 0.0 - - - - - - -
19/10:27pm 12.9 W 21 28 1004.4 - 0.0 - - - - - - -
19/10:00pm 13.0 WNW 21 28 1004.3 - 0.0 - - - - - - -
19/09:51pm 12.8 WNW 20 30 1004.5 - 0.0 - - - - - - -
19/09:30pm 12.8 W 22 27 1004.9 - 0.0 - - - - - - -
19/09:00pm 13.0 WNW 22 29 1004.8 - 0.0 - - - - - - -
19/08:30pm 12.8 W 21 28 1005.5 - 0.0 - - - - - - -
19/08:00pm 12.7 WNW 27 33 1005.2 - 0.0 - - - - - - -
19/07:30pm 12.8 W 21 34 1005.7 - 0.0 - - - - - - -
19/07:27pm 13.1 W 20 31 1005.8 - 0.0 - - - - - - -
19/07:00pm 12.5 WNW 21 29 1006.0 - 0.0 - - - - - - -
19/06:31pm 12.5 WNW 22 32 1006.2 - 0.0 - - - - - - -
19/06:30pm 12.5 WNW 23 32 1006.3 - 0.0 - - - - - - -
19/06:00pm 12.3 NW 23 33 1006.6 - 0.0 - - - - - - -
19/05:39pm 12.3 WNW 23 35 1006.9 - 0.0 - - - - - - -
19/05:30pm 12.3 NW 25 32 1007.1 - 0.0 - - - - - - -
19/05:00pm 12.2 WNW 25 37 1007.6 - 0.0 - - - - - - -
19/04:30pm 12.3 NW 22 32 1008.2 - 0.0 - - - - - - -
19/04:00pm 12.6 WNW 24 34 1008.7 - 0.0 - - - - - - -
19/03:35pm 12.5 WNW 25 35 1009.0 - 0.0 - - - - - - -
19/03:30pm 12.5 WNW 26 35 1009.0 - 0.0 - - - - - - -
19/03:00pm 12.4 WNW 26 33 1009.3 - 0.0 - - - - - - -
19/02:30pm 12.4 W 27 34 1009.6 - 0.0 - - - - - - -
19/02:00pm 12.4 WNW 30 39 1009.7 - 0.0 - - - - - - -
19/01:30pm 12.0 WNW 25 33 1010.4 - 0.0 - - - - - - -
19/01:00pm 11.9 WNW 21 29 1011.3 - 0.0 - - - - - - -
19/12:30pm 11.5 WNW 15 20 1012.1 - 0.0 - - - - - - -

Other Formats:

Comma delimited format used in spreadsheet applications
http://www.bom.gov.au/fwo/IDT60701/IDT60701.95967.axf

JavaScript Object Notation format (JSON) in row-major order
http://www.bom.gov.au/fwo/IDT60701/IDT60701.95967.json